Time;durP1;ratioP1;P1;durP2;ratioP2;P2;SDS_P1;SDS_P2;PMS_P1;PMS_P2;Temp;Humidity;BMP_temperature;BMP_pressure;BME280_temperature;BME280_humidity;BME280_pressure;Samples;Min_cycle;Max_cycle;Signal;HPM_P1;HPM_P2
2021/12/23 00:01:14;;;;;;;;;63.00;48.75;;;;;0.47;76.96;100814.03;5040281;28;45525;-68
2021/12/23 00:03:40;;;;;;;;;65.50;47.25;;;;;0.53;76.97;100818.41;5059120;28;45324;-66
2021/12/23 00:06:05;;;;;;;;;60.50;39.75;;;;;0.52;76.89;100814.94;5041954;28;45465;-61
2021/12/23 00:08:30;;;;;;;;;58.75;43.25;;;;;0.52;77.06;100807.16;5058091;28;45410;-63
2021/12/23 00:10:56;;;;;;;;;63.00;44.75;;;;;0.53;77.04;100801.16;5057439;28;45604;-62
2021/12/23 00:13:21;;;;;;;;;59.00;41.75;;;;;0.46;77.19;100808.88;5057382;28;45316;-60
2021/12/23 00:16:03;;;;;;;;;60.00;43.50;;;;;0.39;77.15;100802.78;5058172;28;45427;-60
2021/12/23 00:23:48;;;;;;;;;65.75;46.50;;;;;0.33;77.33;100790.69;5058475;28;45320;-63
2021/12/23 00:26:14;;;;;;;;;70.00;47.75;;;;;0.28;77.60;100780.31;5058483;28;45372;-60
2021/12/23 00:28:39;;;;;;;;;71.00;51.00;;;;;0.25;77.69;100775.13;5058505;28;45381;-64
2021/12/23 00:31:06;;;;;;;;;57.00;46.50;;;;;0.24;77.82;100775.97;5058506;28;45253;-70
2021/12/23 00:33:34;;;;;;;;;55.75;42.50;;;;;0.22;78.15;100777.69;5058727;28;45299;-67
2021/12/23 00:35:59;;;;;;;;;63.50;44.25;;;;;0.19;78.44;100779.41;5058713;28;45339;-67
2021/12/23 00:38:28;;;;;;;;;66.25;44.75;;;;;0.12;78.42;100771.59;5058455;28;45423;-70
2021/12/23 00:40:54;;;;;;;;;58.00;42.50;;;;;0.10;78.44;100767.25;5058684;28;45437;-69
2021/12/23 00:43:20;;;;;;;;;63.25;44.75;;;;;0.06;78.95;100763.81;5058641;28;46620;-65
2021/12/23 00:45:46;;;;;;;;;66.25;46.25;;;;;0.03;78.77;100765.50;5059309;28;45268;-68
2021/12/23 00:48:11;;;;;;;;;63.00;48.25;;;;;0.01;79.01;100757.75;5057960;28;45287;-69
2021/12/23 00:50:37;;;;;;;;;58.00;45.00;;;;;-0.01;79.29;100759.44;5040053;28;45233;-68
2021/12/23 00:53:06;;;;;;;;;62.00;45.00;;;;;-0.04;79.39;100759.41;5042069;28;46012;-71
2021/12/23 00:55:32;;;;;;;;;62.00;46.50;;;;;-0.06;79.10;100766.28;5059006;28;45343;-70
2021/12/23 00:57:59;;;;;;;;;59.25;46.50;;;;;-0.09;79.33;100749.06;5058604;28;45311;-67
2021/12/23 01:00:25;;;;;;;;;60.25;46.50;;;;;-0.10;79.54;100743.84;5057211;28;45406;-72
2021/12/23 01:02:51;;;;;;;;;66.00;45.00;;;;;-0.11;79.52;100742.13;5058660;28;45352;-68
2021/12/23 01:05:19;;;;;;;;;62.00;47.75;;;;;-0.12;79.79;100740.41;5057633;28;45228;-67
2021/12/23 01:07:44;;;;;;;;;55.50;39.75;;;;;-0.14;79.74;100740.41;5062523;28;45364;-69
2021/12/23 01:10:11;;;;;;;;;68.00;48.50;;;;;-0.17;80.18;100741.22;5063652;28;45577;-66
2021/12/23 01:12:43;;;;;;;;;56.00;38.25;;;;;-0.15;80.34;100741.25;5058998;28;46261;-63
2021/12/23 01:15:15;;;;;;;;;59.50;45.00;;;;;-0.20;80.28;100732.59;5059365;28;45379;-71
2021/12/23 01:17:57;;;;;;;;;54.00;43.75;;;;;-0.21;80.35;100742.06;5060033;28;45342;-65
2021/12/23 01:20:29;;;;;;;;;62.25;43.50;;;;;-0.21;80.74;100736.91;5062263;28;45319;-69
2021/12/23 01:22:57;;;;;;;;;62.75;47.00;;;;;-0.21;80.53;100734.31;5057519;28;47155;-69
2021/12/23 01:25:23;;;;;;;;;65.75;48.00;;;;;-0.22;80.53;100745.50;5057477;28;45427;-65
2021/12/23 01:27:49;;;;;;;;;54.00;41.75;;;;;-0.23;81.23;100741.19;5057786;28;45399;-70
2021/12/23 01:30:17;;;;;;;;;61.25;41.50;;;;;-0.23;80.77;100730.00;5058024;28;45249;-65
2021/12/23 01:32:46;;;;;;;;;59.50;44.00;;;;;-0.23;81.34;100722.25;5058888;28;45369;-64
2021/12/23 01:35:13;;;;;;;;;68.50;54.25;;;;;-0.27;81.29;100708.41;5059622;28;45361;-69
2021/12/23 01:37:39;;;;;;;;;55.50;41.50;;;;;-0.19;80.49;100718.81;5042335;28;45857;-70
2021/12/23 01:40:05;;;;;;;;;53.75;40.50;;;;;-0.20;81.08;100717.94;5063363;28;45360;-68
2021/12/23 01:42:31;;;;;;;;;62.00;48.50;;;;;-0.20;81.04;100717.94;5065431;28;46294;-69
2021/12/23 01:44:57;;;;;;;;;63.50;49.25;;;;;-0.19;80.96;100724.84;5067612;28;45264;-70
2021/12/23 01:47:23;;;;;;;;;65.00;46.75;;;;;-0.17;80.98;100724.88;5057946;28;45212;-71
2021/12/23 01:49:49;;;;;;;;;63.50;49.00;;;;;-0.19;81.01;100714.50;5057978;28;45239;-69
2021/12/23 01:52:14;;;;;;;;;60.25;42.25;;;;;-0.16;80.65;100714.53;5039436;28;46169;-71
2021/12/23 01:54:39;;;;;;;;;60.75;46.00;;;;;-0.17;81.24;100705.03;5058085;28;45279;-69
2021/12/23 01:57:06;;;;;;;;;60.50;43.00;;;;;-0.12;81.30;100699.91;5040234;28;45368;-69
2021/12/23 01:59:33;;;;;;;;;61.75;44.50;;;;;-0.09;81.39;100696.44;5057341;28;45512;-69
2021/12/23 02:01:58;;;;;;;;;64.75;45.75;;;;;-0.05;80.80;100701.66;5057041;28;46128;-69
2021/12/23 02:04:24;;;;;;;;;64.75;48.75;;;;;-0.03;81.27;100691.31;5057071;28;45383;-71
2021/12/23 02:06:49;;;;;;;;;63.50;46.25;;;;;0.02;81.19;100697.41;5056921;28;45411;-71
2021/12/23 02:09:15;;;;;;;;;61.50;48.50;;;;;0.07;81.36;100695.72;5057411;28;45807;-70
2021/12/23 02:11:41;;;;;;;;;60.75;47.00;;;;;0.12;81.15;100693.13;5057184;28;46154;-72
2021/12/23 02:14:07;;;;;;;;;62.00;44.00;;;;;0.09;80.65;100675.88;5056514;28;45240;-69
2021/12/23 02:16:32;;;;;;;;;66.25;49.00;;;;;0.19;80.57;100688.84;5057969;28;45341;-71
2021/12/23 02:18:58;;;;;;;;;56.25;44.00;;;;;0.21;81.22;100700.06;5057157;28;45562;-69
2021/12/23 02:21:23;;;;;;;;;56.00;45.00;;;;;0.25;80.88;100694.06;5057981;28;46029;-69
2021/12/23 02:23:48;;;;;;;;;68.25;46.75;;;;;0.29;80.75;100698.38;5059348;28;45377;-70
2021/12/23 02:26:14;;;;;;;;;60.75;46.00;;;;;0.33;80.65;100687.19;5063030;28;45307;-68
2021/12/23 02:28:39;;;;;;;;;59.75;44.50;;;;;0.37;80.38;100693.22;5056762;28;45551;-69
2021/12/23 02:31:05;;;;;;;;;65.00;43.75;;;;;0.40;80.35;100698.41;5056000;28;45409;-69
2021/12/23 02:33:31;;;;;;;;;64.75;44.00;;;;;0.41;80.69;100685.50;5038289;28;45328;-70
2021/12/23 02:35:58;;;;;;;;;61.75;47.00;;;;;0.47;80.53;100683.78;5056172;28;45324;-63
2021/12/23 02:38:24;;;;;;;;;65.00;48.25;;;;;0.50;80.34;100681.19;5056775;28;45396;-70
2021/12/23 02:40:49;;;;;;;;;64.75;45.50;;;;;0.52;80.32;100677.75;5056432;28;45367;-69
2021/12/23 02:43:20;;;;;;;;;62.75;45.50;;;;;0.53;79.78;100682.09;5038140;28;45437;-66
2021/12/23 02:45:48;;;;;;;;;62.50;44.00;;;;;0.54;80.30;100670.00;5056702;28;45445;-70
2021/12/23 02:48:18;;;;;;;;;60.75;46.75;;;;;0.54;79.98;100673.47;5056950;28;45367;-68
2021/12/23 02:50:46;;;;;;;;;63.75;47.25;;;;;0.55;80.24;100671.72;5055741;28;47063;-66
2021/12/23 02:53:12;;;;;;;;;61.00;47.75;;;;;0.54;80.44;100670.00;5055887;28;45386;-72
2021/12/23 02:55:38;;;;;;;;;62.25;48.25;;;;;0.57;80.16;100664.81;5056252;28;45359;-68
2021/12/23 02:58:05;;;;;;;;;59.00;46.00;;;;;0.53;79.96;100658.78;5056451;28;45438;-70
2021/12/23 03:00:31;;;;;;;;;57.25;44.00;;;;;0.61;79.61;100665.72;5056155;28;46260;-62
2021/12/23 03:02:57;;;;;;;;;62.50;46.75;;;;;0.56;80.00;100663.97;5056766;28;45323;-64
2021/12/23 03:05:23;;;;;;;;;61.00;46.50;;;;;0.55;80.13;100656.19;5057029;28;45783;-65
2021/12/23 03:07:48;;;;;;;;;59.25;44.00;;;;;0.57;79.93;100657.06;5057377;28;45607;-63
2021/12/23 03:10:14;;;;;;;;;65.50;50.00;;;;;0.58;80.07;100654.50;5056855;28;45395;-64
2021/12/23 03:12:39;;;;;;;;;62.00;45.25;;;;;0.58;79.99;100664.84;5062575;28;45324;-64
2021/12/23 03:15:05;;;;;;;;;63.75;45.50;;;;;0.57;80.39;100654.47;5058771;28;45573;-65
2021/12/23 03:17:31;;;;;;;;;63.50;45.25;;;;;0.50;80.26;100634.59;5061780;28;45269;-64
2021/12/23 03:19:56;;;;;;;;;63.25;48.25;;;;;0.56;79.83;100645.84;5055914;28;46093;-66
2021/12/23 03:22:22;;;;;;;;;67.75;46.75;;;;;0.55;80.15;100646.72;5055723;28;45450;-66
2021/12/23 03:24:47;;;;;;;;;61.25;45.50;;;;;0.53;80.07;100637.19;5037881;28;45886;-65
2021/12/23 03:27:13;;;;;;;;;70.00;47.50;;;;;0.55;80.21;100636.38;5056110;28;45512;-65
2021/12/23 03:29:38;;;;;;;;;62.00;47.00;;;;;0.57;80.39;100624.28;5054731;28;45427;-65
2021/12/23 03:32:04;;;;;;;;;60.50;41.75;;;;;0.59;80.25;100639.81;5057023;28;45376;-65
2021/12/23 03:34:29;;;;;;;;;65.25;50.25;;;;;0.61;79.90;100630.31;5071016;28;44706;-63
2021/12/23 03:36:55;;;;;;;;;68.50;49.75;;;;;0.61;80.07;100625.13;5056209;28;45540;-65
2021/12/23 03:39:20;;;;;;;;;65.00;49.25;;;;;0.61;80.27;100622.53;5055965;28;46151;-63
2021/12/23 03:41:47;;;;;;;;;59.75;48.00;;;;;0.61;80.15;100621.69;5056287;28;45248;-65
2021/12/23 03:44:12;;;;;;;;;65.50;47.25;;;;;0.59;80.24;100621.69;5056558;28;45265;-65
2021/12/23 03:46:38;;;;;;;;;61.00;46.75;;;;;0.58;80.22;100609.59;5056918;28;45567;-65
2021/12/23 03:49:08;;;;;;;;;65.75;47.25;;;;;0.57;80.11;100605.28;5055149;28;45347;-63
2021/12/23 03:51:35;;;;;;;;;62.75;48.25;;;;;0.61;80.30;100601.84;5055716;28;45328;-65
2021/12/23 03:54:01;;;;;;;;;63.00;46.50;;;;;0.57;79.95;100605.28;5056189;28;45318;-61
2021/12/23 03:56:27;;;;;;;;;67.25;48.00;;;;;0.58;80.39;100609.59;5057874;28;45551;-65
2021/12/23 03:58:54;;;;;;;;;66.25;47.25;;;;;0.57;80.63;100605.28;5059387;28;47009;-65
2021/12/23 04:01:24;;;;;;;;;64.25;46.00;;;;;0.58;80.34;100612.19;5055496;28;45327;-66
2021/12/23 04:03:53;;;;;;;;;62.25;41.75;;;;;0.58;80.50;100609.59;5056702;28;45241;-63
2021/12/23 04:06:20;;;;;;;;;64.75;49.50;;;;;0.59;80.71;100603.56;5045216;28;45265;-65
2021/12/23 04:08:46;;;;;;;;;61.25;47.25;;;;;0.57;80.61;100593.22;5068031;28;45302;-66
2021/12/23 04:11:11;;;;;;;;;62.00;44.50;;;;;0.57;80.81;100589.75;5055517;28;45464;-64
2021/12/23 04:13:37;;;;;;;;;64.00;49.25;;;;;0.53;80.95;100582.84;5055169;28;45322;-65
2021/12/23 04:16:03;;;;;;;;;61.00;47.25;;;;;0.57;80.65;100593.22;5055032;28;45347;-65
2021/12/23 04:18:28;;;;;;;;;62.25;47.75;;;;;0.55;80.97;100583.72;5055674;28;46668;-65
2021/12/23 04:20:53;;;;;;;;;62.75;45.00;;;;;0.55;80.75;100586.28;5055980;28;45481;-64
2021/12/23 04:23:24;;;;;;;;;66.25;47.25;;;;;0.49;80.73;100579.38;5054914;28;45472;-66
2021/12/23 04:25:50;;;;;;;;;65.00;46.75;;;;;0.58;80.74;100581.13;5055371;28;45313;-65
2021/12/23 04:28:15;;;;;;;;;67.00;47.75;;;;;0.56;80.94;100567.31;5054496;28;46221;-65
2021/12/23 04:30:41;;;;;;;;;62.00;45.50;;;;;0.59;81.19;100562.13;5054355;28;45370;-65
2021/12/23 04:33:06;;;;;;;;;61.00;45.50;;;;;0.62;80.82;100562.13;5054672;28;45318;-64
2021/12/23 04:35:32;;;;;;;;;57.50;45.00;;;;;0.66;80.98;100565.63;5037085;28;45530;-63
2021/12/23 04:37:57;;;;;;;;;58.75;45.50;;;;;0.71;80.99;100563.88;5054735;28;47258;-65
2021/12/23 04:40:23;;;;;;;;;66.75;48.50;;;;;0.75;81.13;100555.25;5055971;28;45468;-63
2021/12/23 04:42:48;;;;;;;;;59.00;47.50;;;;;0.77;80.71;100560.41;5061238;28;45414;-64
2021/12/23 04:45:14;;;;;;;;;60.25;43.75;;;;;0.74;81.13;100553.53;5058892;28;45376;-66
2021/12/23 04:47:40;;;;;;;;;61.25;45.50;;;;;0.82;80.76;100551.78;5058004;28;46074;-66
2021/12/23 04:50:08;;;;;;;;;70.00;50.00;;;;;0.87;80.61;100556.97;5058112;28;45327;-64
2021/12/23 04:52:34;;;;;;;;;70.25;49.00;;;;;0.87;81.05;100549.19;5058294;28;45403;-64
2021/12/23 04:54:59;;;;;;;;;66.00;47.50;;;;;0.89;81.27;100550.06;5058350;28;45625;-66
2021/12/23 04:57:24;;;;;;;;;63.75;47.75;;;;;0.97;80.90;100566.44;5057651;28;46086;-63
2021/12/23 04:59:50;;;;;;;;;69.75;48.25;;;;;0.98;80.44;100564.72;5057855;28;45466;-66
2021/12/23 05:02:15;;;;;;;;;61.25;46.75;;;;;1.01;80.95;100559.56;5058245;28;45260;-66
2021/12/23 05:04:41;;;;;;;;;62.00;43.25;;;;;1.03;80.38;100552.63;5058311;28;45616;-67
2021/12/23 05:07:06;;;;;;;;;61.50;46.25;;;;;1.06;80.07;100554.34;5058188;28;49259;-66
2021/12/23 05:09:31;;;;;;;;;66.50;51.25;;;;;1.06;80.53;100556.94;5040277;28;45319;-64
2021/12/23 05:11:56;;;;;;;;;60.00;44.25;;;;;1.08;80.43;100547.47;5061987;28;45293;-65
2021/12/23 05:14:22;;;;;;;;;68.75;49.00;;;;;1.10;80.24;100548.31;5061649;28;45620;-66
2021/12/23 05:16:47;;;;;;;;;62.75;47.00;;;;;1.11;80.24;100550.06;5057438;28;45517;-66
2021/12/23 05:19:12;;;;;;;;;61.00;45.00;;;;;1.12;80.11;100534.47;5039218;28;45469;-66
2021/12/23 05:21:38;;;;;;;;;62.00;45.75;;;;;1.16;80.32;100530.19;5057358;28;45354;-65
2021/12/23 05:24:04;;;;;;;;;63.00;48.25;;;;;1.16;80.36;100525.84;5057891;28;45581;-64
2021/12/23 05:26:29;;;;;;;;;60.50;49.00;;;;;1.16;80.33;100523.25;5058561;28;45327;-66
2021/12/23 05:28:55;;;;;;;;;61.25;48.75;;;;;1.19;80.35;100526.69;5060931;28;45362;-65
2021/12/23 05:31:20;;;;;;;;;63.25;47.75;;;;;1.20;79.55;100523.25;5061128;28;45797;-65
2021/12/23 05:33:46;;;;;;;;;60.00;46.00;;;;;1.14;79.87;100508.59;5058019;28;45742;-64
2021/12/23 05:36:11;;;;;;;;;60.50;47.25;;;;;1.21;79.89;100512.88;5057513;28;46321;-67
2021/12/23 05:38:36;;;;;;;;;63.25;47.00;;;;;1.22;79.91;100511.16;5057366;28;45250;-65
2021/12/23 05:41:02;;;;;;;;;63.25;47.75;;;;;1.23;79.80;100508.56;5057582;28;45343;-65
2021/12/23 05:43:27;;;;;;;;;61.25;47.25;;;;;1.28;79.75;100511.13;5057382;28;45639;-66
2021/12/23 05:45:53;;;;;;;;;63.25;47.75;;;;;1.30;79.79;100512.84;5057127;28;46088;-69
2021/12/23 05:48:18;;;;;;;;;56.50;45.25;;;;;1.25;79.87;100495.59;5057777;28;45368;-61
2021/12/23 05:50:43;;;;;;;;;69.50;51.25;;;;;1.32;79.88;100507.66;5057859;28;45300;-63
2021/12/23 05:53:09;;;;;;;;;64.50;47.75;;;;;1.33;79.57;100506.78;5039975;28;45686;-64
2021/12/23 05:55:34;;;;;;;;;68.75;52.50;;;;;1.35;79.73;100499.03;5058199;28;46380;-66
2021/12/23 05:58:00;;;;;;;;;67.50;46.50;;;;;1.37;79.75;100505.91;5057034;28;45382;-69
2021/12/23 06:00:28;;;;;;;;;72.25;50.25;;;;;1.39;80.09;100500.75;5056980;28;45321;-67
2021/12/23 06:02:55;;;;;;;;;69.50;49.50;;;;;1.40;79.12;100508.50;5057203;28;45307;-65
2021/12/23 06:05:20;;;;;;;;;61.50;48.75;;;;;1.41;79.52;100509.38;5056457;28;46207;-66
2021/12/23 06:07:47;;;;;;;;;63.75;48.75;;;;;1.43;79.53;100513.66;5056922;28;45276;-65
2021/12/23 06:10:14;;;;;;;;;64.75;47.75;;;;;1.43;79.84;100507.63;5056797;28;45239;-65
2021/12/23 06:12:40;;;;;;;;;64.00;50.50;;;;;1.44;79.53;100506.75;5057881;28;45412;-64
2021/12/23 06:15:06;;;;;;;;;62.25;47.75;;;;;1.44;79.44;100506.75;5059455;28;45831;-64
2021/12/23 06:17:31;;;;;;;;;69.25;50.25;;;;;1.41;79.77;100504.19;5060603;28;45402;-66
2021/12/23 06:19:57;;;;;;;;;64.00;49.50;;;;;1.42;79.74;100509.34;5059670;28;45598;-66
2021/12/23 06:22:22;;;;;;;;;61.75;49.25;;;;;1.40;79.58;100499.88;5058340;28;45410;-64
2021/12/23 06:24:48;;;;;;;;;63.00;47.75;;;;;1.41;79.98;100504.19;5057162;28;46203;-63
2021/12/23 06:27:16;;;;;;;;;68.00;48.50;;;;;1.41;80.13;100505.03;5057384;28;45385;-65
2021/12/23 06:29:42;;;;;;;;;68.75;48.50;;;;;1.40;80.16;100502.47;5061435;28;45201;-66
2021/12/23 06:32:07;;;;;;;;;63.00;47.25;;;;;1.38;79.48;100499.84;5062301;28;45240;-64
2021/12/23 06:34:33;;;;;;;;;68.50;50.50;;;;;1.41;80.22;100505.03;5039863;28;45395;-64
2021/12/23 06:36:58;;;;;;;;;64.25;45.50;;;;;1.41;80.03;100509.38;5057156;28;45282;-64
2021/12/23 06:39:24;;;;;;;;;60.25;46.75;;;;;1.36;80.22;100500.75;5056718;28;45711;-66
2021/12/23 06:41:49;;;;;;;;;61.50;45.25;;;;;1.40;80.52;100523.19;5056633;28;45383;-63
2021/12/23 06:44:15;;;;;;;;;64.00;48.25;;;;;1.41;80.33;100525.78;5056499;28;45587;-69
2021/12/23 06:46:40;;;;;;;;;65.50;47.50;;;;;1.40;80.42;100508.50;5056721;28;45331;-66
2021/12/23 06:49:06;;;;;;;;;66.25;51.50;;;;;1.45;79.79;100511.94;5061470;28;45391;-65
2021/12/23 06:51:31;;;;;;;;;66.00;49.75;;;;;1.50;79.88;100513.63;5061261;28;45253;-66
2021/12/23 06:53:58;;;;;;;;;64.00;49.50;;;;;1.46;80.35;100502.44;5059829;28;46029;-66
2021/12/23 06:56:25;;;;;;;;;57.75;47.00;;;;;1.50;80.64;100504.16;5056121;28;45412;-66
2021/12/23 06:58:51;;;;;;;;;59.25;45.50;;;;;1.52;79.82;100498.94;5056752;28;45243;-64
2021/12/23 07:01:18;;;;;;;;;64.50;47.50;;;;;1.55;80.29;100510.19;5057618;28;45303;-63
2021/12/23 07:06:32;;;;;;;;;66.75;47.00;;;;;1.55;80.39;100515.34;5047871;28;46884;-63
2021/12/23 07:08:59;;;;;;;;;64.00;51.50;;;;;1.56;79.62;100522.28;5057111;28;45473;-63
2021/12/23 07:11:25;;;;;;;;;65.25;50.25;;;;;1.54;80.26;100513.63;5051745;28;45392;-61
2021/12/23 07:13:50;;;;;;;;;67.75;53.00;;;;;1.56;80.82;100518.81;5051173;28;46026;-62
2021/12/23 07:16:16;;;;;;;;;60.25;45.25;;;;;1.56;80.75;100519.69;5038673;28;45412;-63
2021/12/23 07:18:41;;;;;;;;;64.75;48.25;;;;;1.59;80.61;100521.38;5038322;28;45323;-63
2021/12/23 07:21:06;;;;;;;;;65.75;49.50;;;;;1.61;80.64;100522.25;5037757;28;45463;-64
2021/12/23 07:23:32;;;;;;;;;62.25;46.75;;;;;1.61;80.22;100522.25;5058961;28;45332;-65
2021/12/23 07:25:58;;;;;;;;;61.50;48.50;;;;;1.63;80.76;100533.50;5071531;28;45228;-63
2021/12/23 07:28:23;;;;;;;;;72.75;49.25;;;;;1.67;80.84;100521.34;5056858;28;45321;-65
2021/12/23 07:30:49;;;;;;;;;66.25;47.50;;;;;1.73;81.40;100526.53;5056190;28;45271;-63
2021/12/23 07:33:14;;;;;;;;;59.50;46.25;;;;;1.79;80.18;100538.59;5055279;28;45403;-61
2021/12/23 07:35:40;;;;;;;;;62.50;46.50;;;;;1.82;80.43;100521.28;5055539;28;45366;-63
2021/12/23 07:38:06;;;;;;;;;62.50;48.50;;;;;1.86;79.89;100525.59;5055315;28;45350;-64
2021/12/23 07:40:32;;;;;;;;;63.50;47.75;;;;;1.92;79.97;100531.59;5064016;28;45777;-63
2021/12/23 07:43:08;;;;;;;;;67.00;50.75;;;;;1.95;80.44;100524.69;5075206;28;46612;-64
2021/12/23 07:45:34;;;;;;;;;59.75;46.75;;;;;2.02;80.78;100528.09;5075325;28;45504;-63
2021/12/23 07:47:59;;;;;;;;;68.25;50.50;;;;;2.05;79.97;100533.25;5078589;28;45268;-63
2021/12/23 07:50:25;;;;;;;;;65.25;50.25;;;;;2.06;80.60;100534.16;5076947;28;45473;-63
2021/12/23 07:52:51;;;;;;;;;63.25;50.75;;;;;2.11;80.06;100535.81;5059359;28;46280;-64
2021/12/23 07:55:17;;;;;;;;;64.50;50.25;;;;;2.12;80.07;100540.19;5035338;28;45314;-64
2021/12/23 07:57:43;;;;;;;;;62.25;48.25;;;;;2.16;78.96;100536.69;5035036;28;45301;-63
2021/12/23 08:00:09;;;;;;;;;64.25;50.50;;;;;2.19;80.07;100530.59;5035580;28;45526;-64
2021/12/23 08:02:35;;;;;;;;;64.50;51.00;;;;;2.23;80.21;100532.31;5048171;28;45388;-62
2021/12/23 08:05:00;;;;;;;;;61.50;49.00;;;;;2.30;79.27;100533.97;5035184;28;45300;-63
2021/12/23 08:07:25;;;;;;;;;62.25;47.25;;;;;2.37;78.77;100529.63;5045216;28;45292;-64
2021/12/23 08:09:51;;;;;;;;;61.50;48.00;;;;;2.45;79.53;100532.16;5055342;28;45529;-65
2021/12/23 08:12:16;;;;;;;;;65.00;50.00;;;;;2.54;78.83;100532.06;5054887;28;46348;-69
2021/12/23 08:14:41;;;;;;;;;64.50;49.25;;;;;2.66;78.77;100532.88;5055050;28;45445;-70
2021/12/23 08:17:07;;;;;;;;;63.25;47.75;;;;;2.77;78.82;100524.09;5058636;28;45370;-67
2021/12/23 08:19:32;;;;;;;;;65.25;50.25;;;;;2.90;78.60;100524.00;5059200;28;45331;-71
2021/12/23 08:21:57;;;;;;;;;66.50;49.00;;;;;2.98;78.16;100522.19;5059183;28;45933;-75
2021/12/23 08:24:23;;;;;;;;;60.00;45.00;;;;;3.09;78.32;100526.41;5065964;28;45375;-70
2021/12/23 08:26:52;;;;;;;;;61.50;46.25;;;;;3.17;78.15;100522.88;5063943;28;45311;-66
2021/12/23 08:29:19;;;;;;;;;38.75;29.75;;;;;3.26;77.27;100521.03;5069487;28;45449;-64
2021/12/23 08:31:53;;;;;;;;;59.75;46.75;;;;;3.34;78.12;100532.22;5062338;28;45406;-63
2021/12/23 08:34:20;;;;;;;;;59.75;42.25;;;;;3.40;77.11;100529.53;5058453;28;45470;-69
2021/12/23 08:36:45;;;;;;;;;65.25;47.25;;;;;3.48;76.51;100517.31;5059970;28;45425;-63
2021/12/23 08:39:11;;;;;;;;;66.00;51.25;;;;;3.56;76.92;100518.97;5042494;28;45590;-65
2021/12/23 08:41:37;;;;;;;;;64.25;45.50;;;;;3.57;76.13;100516.34;5058735;28;46394;-61
2021/12/23 08:44:02;;;;;;;;;62.75;47.50;;;;;3.68;76.37;100513.59;5060191;28;45554;-69
2021/12/23 08:46:28;;;;;;;;;63.50;47.25;;;;;3.75;75.90;100519.59;5058022;28;45512;-67
2021/12/23 08:48:53;;;;;;;;;63.25;46.50;;;;;3.78;75.89;100517.84;5057894;28;45585;-66
2021/12/23 08:51:18;;;;;;;;;63.00;48.00;;;;;3.84;75.91;100509.06;5057361;28;45352;-70
2021/12/23 08:53:44;;;;;;;;;66.25;49.25;;;;;3.85;75.65;100500.38;5058129;28;45340;-67
2021/12/23 08:56:09;;;;;;;;;60.25;42.50;;;;;3.97;75.40;100504.56;5057878;28;45277;-68
2021/12/23 08:58:36;;;;;;;;;62.75;48.25;;;;;4.04;75.19;100510.53;5058494;28;45502;-66
2021/12/23 09:01:03;;;;;;;;;62.00;45.75;;;;;4.12;74.76;100518.25;5057771;28;45978;-60
2021/12/23 09:03:32;;;;;;;;;60.00;45.75;;;;;4.13;75.08;100505.19;5057619;28;45486;-66
2021/12/23 09:05:58;;;;;;;;;64.00;47.50;;;;;4.21;74.72;100511.16;5058907;28;45257;-63
2021/12/23 09:08:25;;;;;;;;;60.25;48.50;;;;;4.23;74.43;100506.78;5059935;28;45382;-75
2021/12/23 09:10:51;;;;;;;;;62.75;49.00;;;;;4.29;74.42;100511.03;5060327;28;46927;-73
2021/12/23 09:13:16;;;;;;;;;62.25;47.75;;;;;4.33;74.59;100511.88;5069078;28;45266;-65
2021/12/23 09:15:42;;;;;;;;;61.00;46.75;;;;;4.36;74.19;100520.47;5062535;28;45434;-64
2021/12/23 09:18:07;;;;;;;;;59.00;47.75;;;;;4.38;74.15;100520.47;5057623;28;45270;-62
2021/12/23 09:20:33;;;;;;;;;68.25;48.50;;;;;4.43;74.04;100522.97;5058757;28;45354;-62
2021/12/23 09:22:58;;;;;;;;;59.00;47.00;;;;;4.48;74.02;100514.22;5060319;28;45367;-61
2021/12/23 09:25:25;;;;;;;;;64.25;45.75;;;;;4.58;73.23;100516.69;5058602;28;45310;-60
2021/12/23 09:28:03;;;;;;;;;57.75;45.00;;;;;4.67;73.34;100519.13;5056703;28;45382;-68
2021/12/23 09:33:15;;;;;;;;;60.00;43.75;;;;;4.80;73.26;100507.63;5057152;28;45327;-70
2021/12/23 09:35:41;;;;;;;;;55.50;43.75;;;;;4.86;73.38;100516.22;5057425;28;45225;-70
2021/12/23 09:38:08;;;;;;;;;57.50;45.50;;;;;4.91;73.22;100503.94;5057692;28;45271;-72
2021/12/23 09:40:34;;;;;;;;;58.00;45.25;;;;;4.76;73.32;100479.88;5039354;28;47311;-68
2021/12/23 09:43:07;;;;;;;;;56.75;44.75;;;;;4.98;72.44;100510.78;5056992;28;45486;-66
2021/12/23 09:45:34;;;;;;;;;62.75;47.75;;;;;5.04;72.47;100513.28;5057009;28;45307;-64
2021/12/23 09:48:02;;;;;;;;;65.25;49.50;;;;;5.10;72.60;100510.53;5057125;28;45164;-64
2021/12/23 09:50:30;;;;;;;;;60.50;45.25;;;;;5.14;72.70;100498.31;5056693;28;46298;-70
2021/12/23 09:52:56;;;;;;;;;60.50;47.00;;;;;5.19;72.16;100500.84;5056914;28;45433;-65
2021/12/23 09:55:25;;;;;;;;;56.00;43.75;;;;;5.24;72.34;100499.88;5057398;28;45428;-69
2021/12/23 09:57:52;;;;;;;;;53.25;38.00;;;;;5.31;71.66;100495.41;5057318;28;45386;-70
2021/12/23 10:00:21;;;;;;;;;65.50;47.50;;;;;5.33;71.71;100491.00;5039532;28;47159;-70
2021/12/23 10:02:46;;;;;;;;;59.75;46.25;;;;;5.35;72.68;100493.56;5057831;28;45204;-70
2021/12/23 10:05:15;;;;;;;;;60.00;46.75;;;;;5.39;72.16;100498.72;5058304;28;45371;-68
2021/12/23 10:07:44;;;;;;;;;50.75;38.50;;;;;5.43;72.85;100485.59;5058741;28;45492;-71
2021/12/23 10:10:22;;;;;;;;;54.50;43.50;;;;;5.49;72.66;100483.72;5039463;28;47432;-67
2021/12/23 10:32:16;;;;;;;;;62.00;46.50;;;;;6.04;71.84;100461.69;5056243;28;45826;-70
2021/12/23 10:37:19;;;;;;;;;59.25;44.50;;;;;6.11;71.90;100458.91;5059685;28;45381;-70
2021/12/23 10:40:04;;;;;;;;;61.25;46.50;;;;;6.14;71.26;100468.41;5058707;28;45481;-69
2021/12/23 10:42:31;;;;;;;;;57.50;46.00;;;;;6.16;72.09;100447.50;5061532;28;45322;-71
2021/12/23 10:45:11;;;;;;;;;57.25;43.75;;;;;6.08;71.98;100422.44;5060290;28;45490;-71
2021/12/23 10:48:12;;;;;;;;;57.00;44.50;;;;;6.25;72.21;100455.97;5038688;28;45407;-68
2021/12/23 10:50:42;;;;;;;;;56.50;43.25;;;;;6.30;72.43;100440.19;5056020;28;45943;-68
2021/12/23 10:53:25;;;;;;;;;63.75;48.25;;;;;6.30;72.49;100427.13;5056431;28;45516;-68
2021/12/23 10:59:13;;;;;;;;;55.25;41.75;;;;;6.46;72.50;100440.66;5014113;28;45293;-69
2021/12/23 11:02:00;;;;;;;;;49.75;40.75;;;;;6.51;72.37;100441.41;5055062;28;45587;-70
2021/12/23 11:04:26;;;;;;;;;54.50;42.00;;;;;6.51;72.78;100430.09;5038867;28;46363;-69
2021/12/23 11:07:18;;;;;;;;;51.25;39.75;;;;;6.55;73.68;100427.38;5056436;28;45533;-65
2021/12/23 11:10:17;;;;;;;;;54.75;42.00;;;;;6.63;72.88;100423.69;5038120;28;45310;-65
2021/12/23 11:35:44;;;;;;;;;50.00;39.25;;;;;7.19;73.34;100399.50;5056699;28;45446;-73
2021/12/23 11:37:57;;;;;;;;;47.00;31.00;;;;;7.35;74.44;100412.13;5055658;28;45880;-69
2021/12/23 11:40:50;;;;;;;;;52.25;41.25;;;;;7.37;74.34;100405.94;5057316;28;45469;-65
2021/12/23 11:45:40;;;;;;;;;49.50;39.25;;;;;7.43;73.49;100403.16;5052104;28;45502;-69
2021/12/23 11:48:08;;;;;;;;;48.00;39.25;;;;;7.45;73.94;100409.19;5041349;28;47036;-71
2021/12/23 11:50:42;;;;;;;;;52.50;39.00;;;;;7.44;74.79;100396.16;5037478;28;45495;-68
2021/12/23 11:53:09;;;;;;;;;53.00;41.75;;;;;7.48;74.77;100407.41;5041720;28;45451;-67
2021/12/23 11:55:36;;;;;;;;;46.25;35.75;;;;;7.52;74.34;100401.16;5044100;28;45621;-64
2021/12/23 11:58:03;;;;;;;;;46.75;34.00;;;;;7.59;74.43;100392.22;5044749;28;45403;-66
2021/12/23 12:00:41;;;;;;;;;48.25;38.25;;;;;7.66;74.30;100395.47;5040656;28;45330;-65
2021/12/23 12:03:08;;;;;;;;;43.25;35.50;;;;;7.73;74.47;100394.38;5038632;28;45320;-64
2021/12/23 12:05:35;;;;;;;;;49.50;36.50;;;;;7.79;74.82;100388.94;5038656;28;45553;-66
2021/12/23 12:08:06;;;;;;;;;45.50;36.00;;;;;7.64;75.37;100343.19;5043002;28;46281;-70
2021/12/23 12:10:33;;;;;;;;;48.50;36.50;;;;;7.91;75.02;100385.09;5054450;28;45473;-71
2021/12/23 12:13:02;;;;;;;;;45.75;37.00;;;;;7.93;75.64;100371.94;5057612;28;45308;-72
2021/12/23 12:15:47;;;;;;;;;48.25;35.25;;;;;8.06;75.91;100375.03;5057929;28;45391;-69
2021/12/23 12:18:22;;;;;;;;;47.25;36.50;;;;;8.16;75.59;100365.94;5056750;28;45454;-70